sensor_id;sensor_type;location;lat;lon;timestamp;P1;durP1;ratioP1;P2;durP2;ratioP2
19923;SDS011;10124;53.068;18.224;2022-08-23T00:02:26;6.95;;;2.30;;
19923;SDS011;10124;53.068;18.224;2022-08-23T00:04:54;3.80;;;1.67;;
19923;SDS011;10124;53.068;18.224;2022-08-23T00:07:39;4.78;;;1.90;;
19923;SDS011;10124;53.068;18.224;2022-08-23T00:10:10;3.80;;;1.77;;
19923;SDS011;10124;53.068;18.224;2022-08-23T00:12:41;4.63;;;1.80;;
19923;SDS011;10124;53.068;18.224;2022-08-23T00:15:11;6.80;;;2.00;;
19923;SDS011;10124;53.068;18.224;2022-08-23T00:17:40;5.50;;;1.70;;
19923;SDS011;10124;53.068;18.224;2022-08-23T00:20:10;2.95;;;1.73;;
19923;SDS011;10124;53.068;18.224;2022-08-23T00:22:39;6.05;;;1.95;;
19923;SDS011;10124;53.068;18.224;2022-08-23T00:25:07;3.92;;;1.90;;
19923;SDS011;10124;53.068;18.224;2022-08-23T00:27:37;9.07;;;1.98;;
19923;SDS011;10124;53.068;18.224;2022-08-23T00:30:06;5.05;;;1.52;;
19923;SDS011;10124;53.068;18.224;2022-08-23T00:32:36;2.83;;;1.88;;
19923;SDS011;10124;53.068;18.224;2022-08-23T00:35:04;2.70;;;1.80;;
19923;SDS011;10124;53.068;18.224;2022-08-23T00:37:33;2.67;;;1.55;;
19923;SDS011;10124;53.068;18.224;2022-08-23T00:40:01;4.50;;;1.90;;
19923;SDS011;10124;53.068;18.224;2022-08-23T00:45:36;3.67;;;1.80;;
19923;SDS011;10124;53.068;18.224;2022-08-23T00:48:30;3.05;;;1.23;;
19923;SDS011;10124;53.068;18.224;2022-08-23T00:53:32;4.97;;;1.80;;
19923;SDS011;10124;53.068;18.224;2022-08-23T00:56:04;6.43;;;2.00;;
19923;SDS011;10124;53.068;18.224;2022-08-23T00:58:35;6.18;;;1.80;;
19923;SDS011;10124;53.068;18.224;2022-08-23T01:01:03;6.43;;;1.80;;
19923;SDS011;10124;53.068;18.224;2022-08-23T01:03:34;7.60;;;1.98;;
19923;SDS011;10124;53.068;18.224;2022-08-23T01:06:10;5.63;;;2.38;;
19923;SDS011;10124;53.068;18.224;2022-08-23T01:08:44;4.43;;;2.08;;
19923;SDS011;10124;53.068;18.224;2022-08-23T01:11:19;2.83;;;1.75;;
19923;SDS011;10124;53.068;18.224;2022-08-23T01:13:57;8.00;;;2.28;;
19923;SDS011;10124;53.068;18.224;2022-08-23T01:16:30;4.18;;;1.73;;
19923;SDS011;10124;53.068;18.224;2022-08-23T01:19:04;3.47;;;1.70;;
19923;SDS011;10124;53.068;18.224;2022-08-23T01:24:34;4.78;;;1.65;;
19923;SDS011;10124;53.068;18.224;2022-08-23T01:27:23;4.20;;;1.85;;
19923;SDS011;10124;53.068;18.224;2022-08-23T01:29:51;4.63;;;2.15;;
19923;SDS011;10124;53.068;18.224;2022-08-23T01:32:19;3.42;;;1.92;;
19923;SDS011;10124;53.068;18.224;2022-08-23T01:34:47;3.28;;;1.80;;
19923;SDS011;10124;53.068;18.224;2022-08-23T01:37:18;3.95;;;1.60;;
19923;SDS011;10124;53.068;18.224;2022-08-23T01:39:47;4.22;;;1.63;;
19923;SDS011;10124;53.068;18.224;2022-08-23T01:42:15;6.60;;;1.90;;
19923;SDS011;10124;53.068;18.224;2022-08-23T01:44:43;3.78;;;1.90;;
19923;SDS011;10124;53.068;18.224;2022-08-23T01:47:10;5.75;;;2.40;;
19923;SDS011;10124;53.068;18.224;2022-08-23T01:49:37;3.38;;;2.00;;
19923;SDS011;10124;53.068;18.224;2022-08-23T01:52:05;3.88;;;1.88;;
19923;SDS011;10124;53.068;18.224;2022-08-23T01:54:33;7.40;;;2.22;;
19923;SDS011;10124;53.068;18.224;2022-08-23T01:57:00;3.10;;;1.88;;
19923;SDS011;10124;53.068;18.224;2022-08-23T01:59:28;5.97;;;2.50;;
19923;SDS011;10124;53.068;18.224;2022-08-23T02:01:57;8.35;;;2.47;;
19923;SDS011;10124;53.068;18.224;2022-08-23T02:04:24;5.53;;;1.88;;
19923;SDS011;10124;53.068;18.224;2022-08-23T02:06:53;4.63;;;2.03;;
19923;SDS011;10124;53.068;18.224;2022-08-23T02:09:23;5.05;;;2.20;;
19923;SDS011;10124;53.068;18.224;2022-08-23T02:11:55;9.20;;;2.72;;
19923;SDS011;10124;53.068;18.224;2022-08-23T02:14:22;4.82;;;1.95;;
19923;SDS011;10124;53.068;18.224;2022-08-23T02:16:57;3.67;;;2.53;;
19923;SDS011;10124;53.068;18.224;2022-08-23T02:19:30;3.97;;;2.15;;
19923;SDS011;10124;53.068;18.224;2022-08-23T02:21:59;4.32;;;2.00;;
19923;SDS011;10124;53.068;18.224;2022-08-23T02:24:27;4.57;;;2.38;;
19923;SDS011;10124;53.068;18.224;2022-08-23T02:26:55;5.15;;;2.20;;
19923;SDS011;10124;53.068;18.224;2022-08-23T02:29:27;7.40;;;3.25;;
19923;SDS011;10124;53.068;18.224;2022-08-23T02:31:58;5.30;;;2.75;;
19923;SDS011;10124;53.068;18.224;2022-08-23T02:34:27;5.90;;;2.60;;
19923;SDS011;10124;53.068;18.224;2022-08-23T02:36:55;4.43;;;2.63;;
19923;SDS011;10124;53.068;18.224;2022-08-23T02:39:24;6.35;;;2.40;;
19923;SDS011;10124;53.068;18.224;2022-08-23T02:41:51;4.85;;;2.30;;
19923;SDS011;10124;53.068;18.224;2022-08-23T02:44:20;10.27;;;2.70;;
19923;SDS011;10124;53.068;18.224;2022-08-23T02:46:47;6.85;;;2.63;;
19923;SDS011;10124;53.068;18.224;2022-08-23T02:49:15;6.70;;;2.90;;
19923;SDS011;10124;53.068;18.224;2022-08-23T02:51:43;9.02;;;2.53;;
19923;SDS011;10124;53.068;18.224;2022-08-23T02:54:11;8.07;;;2.85;;
19923;SDS011;10124;53.068;18.224;2022-08-23T02:56:38;4.78;;;2.40;;
19923;SDS011;10124;53.068;18.224;2022-08-23T02:59:07;5.75;;;2.63;;
19923;SDS011;10124;53.068;18.224;2022-08-23T03:01:35;6.93;;;2.72;;
19923;SDS011;10124;53.068;18.224;2022-08-23T03:04:28;7.00;;;2.85;;
19923;SDS011;10124;53.068;18.224;2022-08-23T03:06:55;4.43;;;2.55;;
19923;SDS011;10124;53.068;18.224;2022-08-23T03:09:22;6.50;;;2.65;;
19923;SDS011;10124;53.068;18.224;2022-08-23T03:11:51;5.97;;;2.20;;
19923;SDS011;10124;53.068;18.224;2022-08-23T03:14:20;6.80;;;2.90;;
19923;SDS011;10124;53.068;18.224;2022-08-23T03:16:48;6.80;;;2.75;;
19923;SDS011;10124;53.068;18.224;2022-08-23T03:19:16;7.55;;;3.05;;
19923;SDS011;10124;53.068;18.224;2022-08-23T03:21:43;4.78;;;2.38;;
19923;SDS011;10124;53.068;18.224;2022-08-23T03:24:13;7.78;;;2.35;;
19923;SDS011;10124;53.068;18.224;2022-08-23T03:26:42;3.30;;;2.20;;
19923;SDS011;10124;53.068;18.224;2022-08-23T03:29:14;7.00;;;2.92;;
19923;SDS011;10124;53.068;18.224;2022-08-23T03:32:00;8.10;;;2.97;;
19923;SDS011;10124;53.068;18.224;2022-08-23T03:34:34;7.13;;;3.10;;
19923;SDS011;10124;53.068;18.224;2022-08-23T03:37:05;6.97;;;2.58;;
19923;SDS011;10124;53.068;18.224;2022-08-23T03:39:34;4.00;;;2.83;;
19923;SDS011;10124;53.068;18.224;2022-08-23T03:42:02;6.35;;;3.10;;
19923;SDS011;10124;53.068;18.224;2022-08-23T03:44:32;7.18;;;3.17;;
19923;SDS011;10124;53.068;18.224;2022-08-23T03:47:00;7.68;;;2.88;;
19923;SDS011;10124;53.068;18.224;2022-08-23T03:49:28;9.88;;;3.08;;
19923;SDS011;10124;53.068;18.224;2022-08-23T03:51:56;7.32;;;3.08;;
19923;SDS011;10124;53.068;18.224;2022-08-23T03:54:29;10.15;;;3.20;;
19923;SDS011;10124;53.068;18.224;2022-08-23T03:57:04;6.25;;;3.13;;
19923;SDS011;10124;53.068;18.224;2022-08-23T03:59:36;6.53;;;2.97;;
19923;SDS011;10124;53.068;18.224;2022-08-23T04:02:08;5.88;;;2.33;;
19923;SDS011;10124;53.068;18.224;2022-08-23T04:04:37;7.35;;;3.25;;
19923;SDS011;10124;53.068;18.224;2022-08-23T04:07:28;7.13;;;3.20;;
19923;SDS011;10124;53.068;18.224;2022-08-23T04:09:57;11.98;;;3.78;;
19923;SDS011;10124;53.068;18.224;2022-08-23T04:12:30;11.25;;;3.35;;
19923;SDS011;10124;53.068;18.224;2022-08-23T04:14:57;6.05;;;3.30;;
19923;SDS011;10124;53.068;18.224;2022-08-23T04:17:25;7.53;;;3.38;;
19923;SDS011;10124;53.068;18.224;2022-08-23T04:19:53;9.18;;;3.05;;
19923;SDS011;10124;53.068;18.224;2022-08-23T04:22:20;7.75;;;3.10;;
19923;SDS011;10124;53.068;18.224;2022-08-23T04:24:49;4.90;;;2.90;;
19923;SDS011;10124;53.068;18.224;2022-08-23T04:27:16;11.45;;;4.22;;
19923;SDS011;10124;53.068;18.224;2022-08-23T04:29:45;7.30;;;3.53;;
19923;SDS011;10124;53.068;18.224;2022-08-23T04:32:13;11.98;;;6.97;;
19923;SDS011;10124;53.068;18.224;2022-08-23T04:34:54;18.70;;;7.75;;
19923;SDS011;10124;53.068;18.224;2022-08-23T04:37:24;16.63;;;7.68;;
19923;SDS011;10124;53.068;18.224;2022-08-23T04:39:52;14.38;;;6.72;;
19923;SDS011;10124;53.068;18.224;2022-08-23T04:42:42;22.05;;;9.10;;
19923;SDS011;10124;53.068;18.224;2022-08-23T04:45:10;17.98;;;9.57;;
19923;SDS011;10124;53.068;18.224;2022-08-23T04:47:42;31.80;;;12.82;;
19923;SDS011;10124;53.068;18.224;2022-08-23T04:50:11;25.10;;;12.75;;
19923;SDS011;10124;53.068;18.224;2022-08-23T04:52:57;18.77;;;9.82;;
19923;SDS011;10124;53.068;18.224;2022-08-23T04:55:27;14.70;;;6.47;;
19923;SDS011;10124;53.068;18.224;2022-08-23T04:58:05;16.38;;;4.88;;
19923;SDS011;10124;53.068;18.224;2022-08-23T05:00:42;11.43;;;3.60;;
19923;SDS011;10124;53.068;18.224;2022-08-23T05:03:19;7.53;;;3.38;;
19923;SDS011;10124;53.068;18.224;2022-08-23T05:05:47;6.07;;;2.97;;
19923;SDS011;10124;53.068;18.224;2022-08-23T05:08:16;7.82;;;2.97;;
19923;SDS011;10124;53.068;18.224;2022-08-23T05:10:45;11.68;;;3.50;;
19923;SDS011;10124;53.068;18.224;2022-08-23T05:13:13;9.55;;;2.63;;
19923;SDS011;10124;53.068;18.224;2022-08-23T05:15:41;6.60;;;3.15;;
19923;SDS011;10124;53.068;18.224;2022-08-23T05:18:10;8.35;;;3.08;;
19923;SDS011;10124;53.068;18.224;2022-08-23T05:20:39;10.00;;;3.03;;
19923;SDS011;10124;53.068;18.224;2022-08-23T05:23:07;5.63;;;2.50;;
19923;SDS011;10124;53.068;18.224;2022-08-23T05:25:42;8.40;;;2.92;;
19923;SDS011;10124;53.068;18.224;2022-08-23T05:28:34;7.05;;;2.70;;
19923;SDS011;10124;53.068;18.224;2022-08-23T05:31:04;7.40;;;3.03;;
19923;SDS011;10124;53.068;18.224;2022-08-23T05:33:48;10.68;;;2.58;;
19923;SDS011;10124;53.068;18.224;2022-08-23T05:36:22;5.28;;;2.20;;
19923;SDS011;10124;53.068;18.224;2022-08-23T05:38:49;4.85;;;2.85;;
19923;SDS011;10124;53.068;18.224;2022-08-23T05:41:20;9.80;;;3.50;;
19923;SDS011;10124;53.068;18.224;2022-08-23T05:43:55;6.35;;;3.00;;
19923;SDS011;10124;53.068;18.224;2022-08-23T05:46:22;7.18;;;3.45;;
19923;SDS011;10124;53.068;18.224;2022-08-23T05:49:13;7.72;;;3.17;;
19923;SDS011;10124;53.068;18.224;2022-08-23T05:51:47;5.22;;;3.40;;
19923;SDS011;10124;53.068;18.224;2022-08-23T05:54:18;7.55;;;3.47;;
19923;SDS011;10124;53.068;18.224;2022-08-23T05:56:57;11.50;;;3.45;;
19923;SDS011;10124;53.068;18.224;2022-08-23T05:59:25;11.68;;;3.75;;
19923;SDS011;10124;53.068;18.224;2022-08-23T06:01:52;9.02;;;4.05;;
19923;SDS011;10124;53.068;18.224;2022-08-23T06:04:21;9.50;;;3.75;;
19923;SDS011;10124;53.068;18.224;2022-08-23T06:06:49;10.93;;;4.15;;
19923;SDS011;10124;53.068;18.224;2022-08-23T06:09:16;8.07;;;4.22;;
19923;SDS011;10124;53.068;18.224;2022-08-23T06:11:46;9.30;;;3.67;;
19923;SDS011;10124;53.068;18.224;2022-08-23T06:14:15;11.25;;;4.07;;
19923;SDS011;10124;53.068;18.224;2022-08-23T06:16:44;11.48;;;3.70;;
19923;SDS011;10124;53.068;18.224;2022-08-23T06:19:17;10.18;;;4.28;;
19923;SDS011;10124;53.068;18.224;2022-08-23T06:21:48;10.32;;;4.25;;
19923;SDS011;10124;53.068;18.224;2022-08-23T06:24:24;7.85;;;4.63;;
19923;SDS011;10124;53.068;18.224;2022-08-23T06:26:59;16.88;;;5.55;;
19923;SDS011;10124;53.068;18.224;2022-08-23T06:29:27;17.20;;;6.30;;
19923;SDS011;10124;53.068;18.224;2022-08-23T06:32:15;12.43;;;4.85;;
19923;SDS011;10124;53.068;18.224;2022-08-23T06:35:02;10.15;;;4.45;;
19923;SDS011;10124;53.068;18.224;2022-08-23T06:37:55;14.73;;;5.53;;
19923;SDS011;10124;53.068;18.224;2022-08-23T06:40:46;11.35;;;4.85;;
19923;SDS011;10124;53.068;18.224;2022-08-23T06:43:27;12.10;;;5.20;;
19923;SDS011;10124;53.068;18.224;2022-08-23T06:46:25;9.40;;;5.07;;
19923;SDS011;10124;53.068;18.224;2022-08-23T06:48:55;11.38;;;5.30;;
19923;SDS011;10124;53.068;18.224;2022-08-23T06:51:26;17.25;;;5.47;;
19923;SDS011;10124;53.068;18.224;2022-08-23T06:54:05;18.02;;;5.90;;
19923;SDS011;10124;53.068;18.224;2022-08-23T06:56:57;9.55;;;5.65;;
19923;SDS011;10124;53.068;18.224;2022-08-23T06:59:30;11.68;;;5.70;;
19923;SDS011;10124;53.068;18.224;2022-08-23T07:02:10;17.30;;;5.07;;
19923;SDS011;10124;53.068;18.224;2022-08-23T07:05:14;13.02;;;4.97;;
19923;SDS011;10124;53.068;18.224;2022-08-23T07:07:50;9.32;;;4.55;;
19923;SDS011;10124;53.068;18.224;2022-08-23T07:10:18;16.38;;;5.50;;
19923;SDS011;10124;53.068;18.224;2022-08-23T07:12:45;12.85;;;5.63;;
19923;SDS011;10124;53.068;18.224;2022-08-23T07:15:17;8.93;;;5.20;;
19923;SDS011;10124;53.068;18.224;2022-08-23T07:17:46;9.77;;;5.50;;
19923;SDS011;10124;53.068;18.224;2022-08-23T07:20:13;35.10;;;7.07;;
19923;SDS011;10124;53.068;18.224;2022-08-23T07:22:43;12.65;;;4.93;;
19923;SDS011;10124;53.068;18.224;2022-08-23T07:25:11;13.38;;;6.00;;
19923;SDS011;10124;53.068;18.224;2022-08-23T07:27:42;12.30;;;5.93;;
19923;SDS011;10124;53.068;18.224;2022-08-23T07:30:12;17.58;;;6.32;;
19923;SDS011;10124;53.068;18.224;2022-08-23T07:32:40;9.73;;;6.68;;
19923;SDS011;10124;53.068;18.224;2022-08-23T07:35:19;12.00;;;5.57;;
19923;SDS011;10124;53.068;18.224;2022-08-23T07:37:51;14.73;;;5.93;;
19923;SDS011;10124;53.068;18.224;2022-08-23T07:40:18;17.33;;;7.20;;
19923;SDS011;10124;53.068;18.224;2022-08-23T07:42:54;15.95;;;6.55;;
19923;SDS011;10124;53.068;18.224;2022-08-23T07:45:23;13.50;;;6.38;;
19923;SDS011;10124;53.068;18.224;2022-08-23T07:47:55;10.93;;;5.75;;
19923;SDS011;10124;53.068;18.224;2022-08-23T07:50:24;12.02;;;6.28;;
19923;SDS011;10124;53.068;18.224;2022-08-23T07:53:18;13.85;;;6.28;;
19923;SDS011;10124;53.068;18.224;2022-08-23T07:56:06;16.85;;;7.50;;
19923;SDS011;10124;53.068;18.224;2022-08-23T07:58:54;15.55;;;7.72;;
19923;SDS011;10124;53.068;18.224;2022-08-23T08:01:32;16.27;;;6.90;;
19923;SDS011;10124;53.068;18.224;2022-08-23T08:04:01;12.00;;;6.82;;
19923;SDS011;10124;53.068;18.224;2022-08-23T08:06:33;9.07;;;6.43;;
19923;SDS011;10124;53.068;18.224;2022-08-23T08:09:05;15.32;;;6.97;;
19923;SDS011;10124;53.068;18.224;2022-08-23T08:11:34;12.13;;;6.13;;
19923;SDS011;10124;53.068;18.224;2022-08-23T08:14:04;15.18;;;6.95;;
19923;SDS011;10124;53.068;18.224;2022-08-23T08:16:39;14.07;;;6.38;;
19923;SDS011;10124;53.068;18.224;2022-08-23T08:19:18;14.15;;;6.20;;
19923;SDS011;10124;53.068;18.224;2022-08-23T08:22:26;16.98;;;7.25;;
19923;SDS011;10124;53.068;18.224;2022-08-23T08:25:09;12.20;;;7.00;;
19923;SDS011;10124;53.068;18.224;2022-08-23T08:27:40;12.38;;;7.00;;
19923;SDS011;10124;53.068;18.224;2022-08-23T08:30:09;18.70;;;7.72;;
19923;SDS011;10124;53.068;18.224;2022-08-23T08:32:39;18.45;;;7.25;;
19923;SDS011;10124;53.068;18.224;2022-08-23T08:35:14;28.02;;;8.63;;
19923;SDS011;10124;53.068;18.224;2022-08-23T08:37:42;18.95;;;8.80;;
19923;SDS011;10124;53.068;18.224;2022-08-23T08:40:09;14.38;;;7.93;;
19923;SDS011;10124;53.068;18.224;2022-08-23T08:42:56;13.77;;;8.13;;
19923;SDS011;10124;53.068;18.224;2022-08-23T08:45:37;16.90;;;8.70;;
19923;SDS011;10124;53.068;18.224;2022-08-23T08:48:25;15.57;;;9.02;;
19923;SDS011;10124;53.068;18.224;2022-08-23T08:50:57;17.63;;;10.00;;
19923;SDS011;10124;53.068;18.224;2022-08-23T08:53:30;19.33;;;9.52;;
19923;SDS011;10124;53.068;18.224;2022-08-23T08:56:14;21.70;;;10.40;;
19923;SDS011;10124;53.068;18.224;2022-08-23T08:59:30;22.48;;;10.85;;
19923;SDS011;10124;53.068;18.224;2022-08-23T09:02:06;17.10;;;10.18;;
19923;SDS011;10124;53.068;18.224;2022-08-23T09:04:59;19.77;;;10.20;;
19923;SDS011;10124;53.068;18.224;2022-08-23T09:19:01;19.92;;;11.13;;
19923;SDS011;10124;53.068;18.224;2022-08-23T09:21:40;26.42;;;11.43;;
19923;SDS011;10124;53.068;18.224;2022-08-23T09:24:14;17.50;;;10.90;;
19923;SDS011;10124;53.068;18.224;2022-08-23T09:27:03;20.20;;;11.57;;
19923;SDS011;10124;53.068;18.224;2022-08-23T09:29:33;20.83;;;11.75;;
19923;SDS011;10124;53.068;18.224;2022-08-23T09:32:04;19.60;;;11.07;;
19923;SDS011;10124;53.068;18.224;2022-08-23T09:34:50;15.18;;;10.75;;
19923;SDS011;10124;53.068;18.224;2022-08-23T09:37:20;22.75;;;10.85;;
19923;SDS011;10124;53.068;18.224;2022-08-23T09:39:51;24.27;;;10.25;;
19923;SDS011;10124;53.068;18.224;2022-08-23T09:42:40;18.50;;;9.68;;
19923;SDS011;10124;53.068;18.224;2022-08-23T09:45:29;26.85;;;8.73;;
19923;SDS011;10124;53.068;18.224;2022-08-23T09:48:03;16.67;;;8.75;;
19923;SDS011;10124;53.068;18.224;2022-08-23T09:50:38;20.75;;;12.32;;
19923;SDS011;10124;53.068;18.224;2022-08-23T09:53:15;14.10;;;7.10;;
19923;SDS011;10124;53.068;18.224;2022-08-23T09:55:55;22.73;;;8.52;;
19923;SDS011;10124;53.068;18.224;2022-08-23T09:58:43;17.73;;;8.45;;
19923;SDS011;10124;53.068;18.224;2022-08-23T10:01:24;17.02;;;6.95;;
19923;SDS011;10124;53.068;18.224;2022-08-23T10:04:14;19.27;;;6.22;;
19923;SDS011;10124;53.068;18.224;2022-08-23T10:06:50;15.13;;;5.78;;
19923;SDS011;10124;53.068;18.224;2022-08-23T10:09:27;25.00;;;6.35;;
19923;SDS011;10124;53.068;18.224;2022-08-23T10:12:03;11.90;;;5.47;;
19923;SDS011;10124;53.068;18.224;2022-08-23T10:14:33;17.42;;;5.63;;
19923;SDS011;10124;53.068;18.224;2022-08-23T10:22:32;12.90;;;5.18;;
19923;SDS011;10124;53.068;18.224;2022-08-23T10:25:37;19.40;;;5.80;;
19923;SDS011;10124;53.068;18.224;2022-08-23T10:34:02;41.33;;;8.15;;
19923;SDS011;10124;53.068;18.224;2022-08-23T10:36:37;12.88;;;5.53;;
19923;SDS011;10124;53.068;18.224;2022-08-23T10:39:18;15.32;;;6.40;;
19923;SDS011;10124;53.068;18.224;2022-08-23T10:42:04;18.05;;;6.18;;
19923;SDS011;10124;53.068;18.224;2022-08-23T10:44:57;20.92;;;6.50;;
19923;SDS011;10124;53.068;18.224;2022-08-23T10:47:34;17.20;;;6.63;;
19923;SDS011;10124;53.068;18.224;2022-08-23T10:50:08;19.15;;;6.68;;
19923;SDS011;10124;53.068;18.224;2022-08-23T10:52:51;20.92;;;6.53;;
19923;SDS011;10124;53.068;18.224;2022-08-23T10:55:24;14.27;;;6.15;;
19923;SDS011;10124;53.068;18.224;2022-08-23T10:58:06;20.00;;;6.15;;
19923;SDS011;10124;53.068;18.224;2022-08-23T11:00:37;30.77;;;6.28;;
19923;SDS011;10124;53.068;18.224;2022-08-23T11:03:14;21.48;;;7.15;;
19923;SDS011;10124;53.068;18.224;2022-08-23T11:05:43;31.05;;;7.60;;
19923;SDS011;10124;53.068;18.224;2022-08-23T11:15:11;16.33;;;5.85;;
19923;SDS011;10124;53.068;18.224;2022-08-23T11:23:41;17.42;;;6.80;;
19923;SDS011;10124;53.068;18.224;2022-08-23T11:28:49;18.83;;;5.75;;
19923;SDS011;10124;53.068;18.224;2022-08-23T11:31:25;15.93;;;5.82;;
19923;SDS011;10124;53.068;18.224;2022-08-23T11:36:30;18.98;;;5.68;;
19923;SDS011;10124;53.068;18.224;2022-08-23T11:39:09;19.88;;;6.25;;
19923;SDS011;10124;53.068;18.224;2022-08-23T11:44:39;16.15;;;5.57;;
19923;SDS011;10124;53.068;18.224;2022-08-23T11:47:24;21.42;;;5.50;;
19923;SDS011;10124;53.068;18.224;2022-08-23T11:52:53;10.73;;;5.20;;
19923;SDS011;10124;53.068;18.224;2022-08-23T11:55:48;15.80;;;5.70;;
19923;SDS011;10124;53.068;18.224;2022-08-23T11:58:56;19.70;;;5.43;;
19923;SDS011;10124;53.068;18.224;2022-08-23T12:01:57;16.23;;;5.55;;
19923;SDS011;10124;53.068;18.224;2022-08-23T12:07:04;15.95;;;5.53;;
19923;SDS011;10124;53.068;18.224;2022-08-23T12:12:11;16.23;;;5.65;;
19923;SDS011;10124;53.068;18.224;2022-08-23T12:15:05;20.42;;;6.32;;
19923;SDS011;10124;53.068;18.224;2022-08-23T12:20:08;22.20;;;6.68;;
19923;SDS011;10124;53.068;18.224;2022-08-23T12:25:34;17.23;;;6.05;;
19923;SDS011;10124;53.068;18.224;2022-08-23T12:31:03;24.50;;;6.28;;
19923;SDS011;10124;53.068;18.224;2022-08-23T12:36:28;17.48;;;6.72;;
19923;SDS011;10124;53.068;18.224;2022-08-23T12:39:20;25.05;;;6.70;;
19923;SDS011;10124;53.068;18.224;2022-08-23T12:44:42;17.65;;;7.18;;
19923;SDS011;10124;53.068;18.224;2022-08-23T12:47:14;20.17;;;6.88;;
19923;SDS011;10124;53.068;18.224;2022-08-23T12:52:35;19.98;;;8.13;;
19923;SDS011;10124;53.068;18.224;2022-08-23T12:55:13;22.40;;;7.03;;
19923;SDS011;10124;53.068;18.224;2022-08-23T12:57:49;18.95;;;8.18;;
19923;SDS011;10124;53.068;18.224;2022-08-23T13:00:32;15.13;;;6.90;;
19923;SDS011;10124;53.068;18.224;2022-08-23T13:03:01;12.63;;;6.72;;
19923;SDS011;10124;53.068;18.224;2022-08-23T13:05:46;22.25;;;7.00;;
19923;SDS011;10124;53.068;18.224;2022-08-23T13:08:20;18.80;;;6.60;;
19923;SDS011;10124;53.068;18.224;2022-08-23T13:11:01;17.27;;;7.15;;
19923;SDS011;10124;53.068;18.224;2022-08-23T13:13:36;24.98;;;7.78;;
19923;SDS011;10124;53.068;18.224;2022-08-23T13:16:26;27.50;;;8.02;;
19923;SDS011;10124;53.068;18.224;2022-08-23T13:24:43;19.00;;;6.43;;
19923;SDS011;10124;53.068;18.224;2022-08-23T13:27:51;26.30;;;7.70;;
19923;SDS011;10124;53.068;18.224;2022-08-23T13:30:22;19.40;;;6.90;;
19923;SDS011;10124;53.068;18.224;2022-08-23T13:32:59;24.05;;;7.00;;
19923;SDS011;10124;53.068;18.224;2022-08-23T13:35:44;27.38;;;7.65;;
19923;SDS011;10124;53.068;18.224;2022-08-23T13:38:19;23.58;;;7.43;;
19923;SDS011;10124;53.068;18.224;2022-08-23T13:41:05;19.65;;;7.25;;
19923;SDS011;10124;53.068;18.224;2022-08-23T13:43:39;25.10;;;6.80;;
19923;SDS011;10124;53.068;18.224;2022-08-23T13:46:18;24.23;;;7.32;;
19923;SDS011;10124;53.068;18.224;2022-08-23T13:49:08;20.55;;;7.63;;
19923;SDS011;10124;53.068;18.224;2022-08-23T13:51:39;19.60;;;8.27;;
19923;SDS011;10124;53.068;18.224;2022-08-23T13:54:13;22.67;;;7.70;;
19923;SDS011;10124;53.068;18.224;2022-08-23T13:56:51;17.02;;;7.00;;
19923;SDS011;10124;53.068;18.224;2022-08-23T13:59:25;26.83;;;8.48;;
19923;SDS011;10124;53.068;18.224;2022-08-23T14:01:58;23.20;;;7.70;;
19923;SDS011;10124;53.068;18.224;2022-08-23T14:04:28;17.05;;;7.40;;
19923;SDS011;10124;53.068;18.224;2022-08-23T14:06:56;22.60;;;7.60;;
19923;SDS011;10124;53.068;18.224;2022-08-23T14:09:23;22.80;;;7.57;;
19923;SDS011;10124;53.068;18.224;2022-08-23T14:11:53;28.73;;;8.68;;
19923;SDS011;10124;53.068;18.224;2022-08-23T14:14:23;17.52;;;6.78;;
19923;SDS011;10124;53.068;18.224;2022-08-23T14:16:52;21.38;;;7.28;;
19923;SDS011;10124;53.068;18.224;2022-08-23T14:19:23;22.38;;;7.43;;
19923;SDS011;10124;53.068;18.224;2022-08-23T14:22:11;21.30;;;8.43;;
19923;SDS011;10124;53.068;18.224;2022-08-23T14:24:40;20.45;;;8.30;;
19923;SDS011;10124;53.068;18.224;2022-08-23T14:27:11;19.33;;;8.05;;
19923;SDS011;10124;53.068;18.224;2022-08-23T14:29:39;18.00;;;7.00;;
19923;SDS011;10124;53.068;18.224;2022-08-23T14:32:06;13.57;;;6.35;;
19923;SDS011;10124;53.068;18.224;2022-08-23T14:34:33;24.98;;;7.93;;
19923;SDS011;10124;53.068;18.224;2022-08-23T14:37:01;22.77;;;8.63;;
19923;SDS011;10124;53.068;18.224;2022-08-23T14:39:49;19.45;;;7.45;;
19923;SDS011;10124;53.068;18.224;2022-08-23T14:42:18;23.17;;;7.10;;
19923;SDS011;10124;53.068;18.224;2022-08-23T14:44:47;32.30;;;9.48;;
19923;SDS011;10124;53.068;18.224;2022-08-23T14:47:16;19.02;;;7.88;;
19923;SDS011;10124;53.068;18.224;2022-08-23T14:49:45;24.63;;;8.88;;
19923;SDS011;10124;53.068;18.224;2022-08-23T14:52:17;17.20;;;8.18;;
19923;SDS011;10124;53.068;18.224;2022-08-23T14:54:45;24.98;;;8.00;;
19923;SDS011;10124;53.068;18.224;2022-08-23T14:57:13;18.25;;;8.82;;
19923;SDS011;10124;53.068;18.224;2022-08-23T14:59:41;15.75;;;7.28;;
19923;SDS011;10124;53.068;18.224;2022-08-23T15:02:09;25.48;;;8.38;;
19923;SDS011;10124;53.068;18.224;2022-08-23T15:04:39;22.83;;;8.98;;
19923;SDS011;10124;53.068;18.224;2022-08-23T15:07:08;28.48;;;9.55;;
19923;SDS011;10124;53.068;18.224;2022-08-23T15:09:48;22.70;;;8.52;;
19923;SDS011;10124;53.068;18.224;2022-08-23T15:12:21;23.20;;;8.85;;
19923;SDS011;10124;53.068;18.224;2022-08-23T15:15:12;20.02;;;9.07;;
19923;SDS011;10124;53.068;18.224;2022-08-23T15:17:47;18.38;;;7.82;;
19923;SDS011;10124;53.068;18.224;2022-08-23T15:20:25;22.83;;;8.98;;
19923;SDS011;10124;53.068;18.224;2022-08-23T15:22:55;21.92;;;8.52;;
19923;SDS011;10124;53.068;18.224;2022-08-23T15:25:25;23.30;;;8.57;;
19923;SDS011;10124;53.068;18.224;2022-08-23T15:27:55;16.65;;;8.15;;
19923;SDS011;10124;53.068;18.224;2022-08-23T15:30:24;18.75;;;8.52;;
19923;SDS011;10124;53.068;18.224;2022-08-23T15:32:56;18.45;;;9.07;;
19923;SDS011;10124;53.068;18.224;2022-08-23T15:35:24;20.23;;;9.07;;
19923;SDS011;10124;53.068;18.224;2022-08-23T15:37:54;19.60;;;9.13;;
19923;SDS011;10124;53.068;18.224;2022-08-23T15:40:23;20.13;;;9.45;;
19923;SDS011;10124;53.068;18.224;2022-08-23T15:42:52;14.55;;;8.82;;
19923;SDS011;10124;53.068;18.224;2022-08-23T15:45:20;18.17;;;10.27;;
19923;SDS011;10124;53.068;18.224;2022-08-23T15:47:49;23.40;;;10.20;;
19923;SDS011;10124;53.068;18.224;2022-08-23T15:50:21;18.77;;;9.85;;
19923;SDS011;10124;53.068;18.224;2022-08-23T15:52:53;24.23;;;11.35;;
19923;SDS011;10124;53.068;18.224;2022-08-23T15:55:22;23.02;;;9.55;;
19923;SDS011;10124;53.068;18.224;2022-08-23T15:57:55;20.17;;;9.90;;
19923;SDS011;10124;53.068;18.224;2022-08-23T16:00:24;16.42;;;9.90;;
19923;SDS011;10124;53.068;18.224;2022-08-23T16:02:53;24.73;;;10.38;;
19923;SDS011;10124;53.068;18.224;2022-08-23T16:05:42;19.13;;;9.98;;
19923;SDS011;10124;53.068;18.224;2022-08-23T16:08:19;24.23;;;10.35;;
19923;SDS011;10124;53.068;18.224;2022-08-23T16:11:02;20.58;;;10.13;;
19923;SDS011;10124;53.068;18.224;2022-08-23T16:13:37;16.02;;;8.95;;
19923;SDS011;10124;53.068;18.224;2022-08-23T16:16:18;21.90;;;9.88;;
19923;SDS011;10124;53.068;18.224;2022-08-23T16:18:51;18.58;;;7.65;;
19923;SDS011;10124;53.068;18.224;2022-08-23T16:21:20;12.48;;;7.93;;
19923;SDS011;10124;53.068;18.224;2022-08-23T16:23:52;15.52;;;7.88;;
19923;SDS011;10124;53.068;18.224;2022-08-23T16:26:22;19.15;;;6.90;;
19923;SDS011;10124;53.068;18.224;2022-08-23T16:29:01;12.60;;;6.10;;
19923;SDS011;10124;53.068;18.224;2022-08-23T16:31:31;8.98;;;5.38;;